createdAt,value
2022-10-17T00:01:11.013Z,13.10
2022-10-17T00:03:40.262Z,14.20
2022-10-17T00:06:13.182Z,13.60
2022-10-17T00:08:43.137Z,14.50
2022-10-17T00:11:23.865Z,13.60
2022-10-17T00:13:55.415Z,13.20
2022-10-17T00:16:34.056Z,12.80
2022-10-17T00:19:02.778Z,13.50
2022-10-17T00:21:31.203Z,12.50
2022-10-17T00:24:00.441Z,12.40
2022-10-17T00:26:29.672Z,12.60
2022-10-17T00:28:58.393Z,13.10
2022-10-17T00:31:26.845Z,13.10
2022-10-17T00:33:54.950Z,14.10
2022-10-17T00:36:26.140Z,12.60
2022-10-17T00:38:58.514Z,12.10
2022-10-17T00:41:33.267Z,14.20
2022-10-17T00:44:06.356Z,13.20
2022-10-17T00:46:39.200Z,12.00
2022-10-17T00:49:12.595Z,12.60
2022-10-17T00:51:51.150Z,12.80
2022-10-17T00:54:24.506Z,11.00
2022-10-17T00:56:54.713Z,12.70
2022-10-17T00:59:24.603Z,12.00
2022-10-17T01:02:18.820Z,12.40
2022-10-17T01:04:54.989Z,12.20
2022-10-17T01:07:23.416Z,11.20
2022-10-17T01:09:51.591Z,11.90
2022-10-17T01:13:07.382Z,11.70
2022-10-17T01:16:23.169Z,11.20
2022-10-17T01:19:36.772Z,11.70
2022-10-17T01:22:31.133Z,11.60
2022-10-17T01:25:24.233Z,10.30
2022-10-17T01:28:29.942Z,11.20
2022-10-17T01:31:32.261Z,11.60
2022-10-17T01:34:28.032Z,11.80
2022-10-17T01:37:04.265Z,11.60
2022-10-17T01:39:43.979Z,12.10
2022-10-17T01:42:27.587Z,10.90
2022-10-17T01:45:05.598Z,10.30
2022-10-17T01:47:34.712Z,11.30
2022-10-17T01:50:11.625Z,11.80
2022-10-17T01:52:48.050Z,12.70
2022-10-17T01:55:24.592Z,11.60
2022-10-17T01:58:02.544Z,10.60
2022-10-17T02:00:32.390Z,12.70
2022-10-17T02:03:04.818Z,10.90
2022-10-17T02:05:39.439Z,11.70
2022-10-17T02:08:08.183Z,11.10
2022-10-17T02:10:40.704Z,10.80
2022-10-17T02:13:52.469Z,11.10
2022-10-17T02:16:38.799Z,11.20
2022-10-17T02:19:41.096Z,11.50
2022-10-17T02:22:39.525Z,11.10
2022-10-17T02:25:24.119Z,11.40
2022-10-17T02:28:28.640Z,12.20
2022-10-17T02:31:09.028Z,12.50
2022-10-17T02:33:52.743Z,11.50
2022-10-17T02:36:26.088Z,12.60
2022-10-17T02:38:55.883Z,12.60
2022-10-17T02:41:25.315Z,12.90
2022-10-17T02:43:55.717Z,12.40
2022-10-17T02:46:28.715Z,13.10
2022-10-17T02:49:18.839Z,12.60
2022-10-17T02:52:16.440Z,13.00
2022-10-17T02:55:13.837Z,12.60
2022-10-17T02:57:49.738Z,13.40
2022-10-17T03:00:19.884Z,12.20
2022-10-17T03:02:51.319Z,13.80
2022-10-17T03:05:27.252Z,13.20
2022-10-17T03:07:56.953Z,12.50
2022-10-17T03:10:25.841Z,12.20
2022-10-17T03:12:54.080Z,12.90
2022-10-17T03:15:22.152Z,12.90
2022-10-17T03:17:50.208Z,13.80
2022-10-17T03:20:18.788Z,13.00
2022-10-17T03:22:46.996Z,11.90
2022-10-17T03:25:15.223Z,14.30
2022-10-17T03:27:44.051Z,12.20
2022-10-17T03:30:12.363Z,11.50
2022-10-17T03:32:40.564Z,10.90
2022-10-17T03:35:14.006Z,11.50
2022-10-17T03:37:45.298Z,11.00
2022-10-17T03:40:14.800Z,11.90
2022-10-17T03:42:42.845Z,11.40
2022-10-17T03:45:11.456Z,10.90
2022-10-17T03:47:39.582Z,11.70
2022-10-17T03:50:08.251Z,12.20
2022-10-17T03:52:37.236Z,12.30
2022-10-17T03:55:05.932Z,13.00
2022-10-17T03:57:36.664Z,13.90
2022-10-17T04:00:06.951Z,12.60
2022-10-17T04:02:42.405Z,11.50
2022-10-17T04:05:13.867Z,12.50
2022-10-17T04:07:42.174Z,11.90
2022-10-17T04:10:11.810Z,11.10
2022-10-17T04:12:40.129Z,12.40
2022-10-17T04:15:09.216Z,12.70
2022-10-17T04:17:38.349Z,13.80
2022-10-17T04:20:07.919Z,11.40
2022-10-17T04:22:35.951Z,12.00
2022-10-17T04:25:04.458Z,12.90
2022-10-17T04:27:37.767Z,12.90
2022-10-17T04:30:06.730Z,13.00
2022-10-17T04:32:41.432Z,13.60
2022-10-17T04:35:15.026Z,14.20
2022-10-17T04:37:46.853Z,13.40
2022-10-17T04:40:18.816Z,13.70
2022-10-17T04:42:47.262Z,13.50
2022-10-17T04:45:17.652Z,13.00
2022-10-17T04:47:46.384Z,13.60
2022-10-17T04:50:14.409Z,14.50
2022-10-17T04:52:42.449Z,13.80
2022-10-17T04:55:10.524Z,13.70
2022-10-17T04:57:39.353Z,16.10
2022-10-17T05:00:16.133Z,15.00
2022-10-17T05:02:55.227Z,14.60
2022-10-17T05:05:23.399Z,16.00
2022-10-17T05:07:52.731Z,15.90
2022-10-17T05:10:24.720Z,47.30
2022-10-17T05:12:53.679Z,35.80
2022-10-17T05:15:23.781Z,30.10
2022-10-17T05:17:56.730Z,25.90
2022-10-17T05:20:25.992Z,17.30
2022-10-17T05:22:54.486Z,15.40
2022-10-17T05:25:22.828Z,15.70
2022-10-17T05:27:50.930Z,12.80
2022-10-17T05:30:19.072Z,12.80
2022-10-17T05:32:47.667Z,12.90
2022-10-17T05:35:16.484Z,13.10
2022-10-17T05:37:44.517Z,13.50
2022-10-17T05:40:12.797Z,14.60
2022-10-17T05:42:49.661Z,13.60
2022-10-17T05:45:18.667Z,14.80
2022-10-17T05:47:47.298Z,14.70
2022-10-17T05:50:15.592Z,14.60
2022-10-17T05:52:58.261Z,15.90
2022-10-17T05:55:26.318Z,15.70
2022-10-17T05:57:54.607Z,15.90
2022-10-17T06:00:23.149Z,15.10
2022-10-17T06:02:56.339Z,14.00
2022-10-17T06:05:25.393Z,14.80
2022-10-17T06:07:56.974Z,14.30
2022-10-17T06:10:29.099Z,14.20
2022-10-17T06:12:57.603Z,16.10
2022-10-17T06:15:26.785Z,16.00
2022-10-17T06:18:07.148Z,15.30
2022-10-17T06:20:35.264Z,16.40
2022-10-17T06:23:03.751Z,15.30
2022-10-17T06:25:45.842Z,18.10
2022-10-17T06:28:13.924Z,18.00
2022-10-17T06:30:42.088Z,15.80
2022-10-17T06:33:10.113Z,16.10
2022-10-17T06:35:38.166Z,16.20
2022-10-17T06:38:06.569Z,17.10
2022-10-17T06:40:35.944Z,16.50
2022-10-17T06:43:04.024Z,15.80
2022-10-17T06:45:50.877Z,17.30
2022-10-17T06:48:29.210Z,18.00
2022-10-17T06:51:15.237Z,16.40
2022-10-17T06:53:50.205Z,16.00
2022-10-17T06:56:43.465Z,17.50
2022-10-17T06:59:30.038Z,21.50
2022-10-17T07:02:13.047Z,17.90
2022-10-17T07:04:41.051Z,15.90
2022-10-17T07:07:09.082Z,15.00
2022-10-17T07:09:37.662Z,15.30
2022-10-17T07:12:08.335Z,15.50
2022-10-17T07:14:36.371Z,14.90
2022-10-17T07:17:05.327Z,14.60
2022-10-17T07:19:34.507Z,15.80
2022-10-17T07:22:02.655Z,16.70
2022-10-17T07:24:31.668Z,16.30
2022-10-17T07:27:08.106Z,17.70
2022-10-17T07:29:36.444Z,19.40
2022-10-17T07:32:13.320Z,17.20
2022-10-17T07:34:41.450Z,16.70
2022-10-17T07:37:10.778Z,17.10
2022-10-17T07:39:40.554Z,16.60
2022-10-17T07:42:08.893Z,18.80
2022-10-17T07:44:37.055Z,23.30
2022-10-17T07:47:06.043Z,24.10
2022-10-17T07:49:35.550Z,25.10
2022-10-17T07:52:03.560Z,23.80
2022-10-17T07:54:31.613Z,21.30
2022-10-17T07:56:59.760Z,19.30
2022-10-17T07:59:27.847Z,20.00
2022-10-17T08:01:59.670Z,17.70
2022-10-17T08:04:28.484Z,17.80
2022-10-17T08:07:11.345Z,16.80
2022-10-17T08:09:45.231Z,18.90
2022-10-17T08:12:14.944Z,18.90
2022-10-17T08:14:43.397Z,17.40
2022-10-17T08:17:11.455Z,16.80
2022-10-17T08:19:40.752Z,14.70
2022-10-17T08:22:08.832Z,12.90
2022-10-17T08:24:36.857Z,14.20
2022-10-17T08:27:11.406Z,21.10
2022-10-17T08:29:40.941Z,15.00
2022-10-17T08:32:10.196Z,18.10
2022-10-17T08:34:38.519Z,15.80
2022-10-17T08:37:06.615Z,19.80
2022-10-17T08:39:34.692Z,17.70
2022-10-17T08:42:08.565Z,15.50
2022-10-17T08:45:28.021Z,16.00
2022-10-17T08:48:02.536Z,14.80
2022-10-17T08:50:53.054Z,14.50
2022-10-17T08:53:39.886Z,15.40
2022-10-17T08:56:25.037Z,17.50
2022-10-17T08:59:12.760Z,15.60
2022-10-17T09:02:04.176Z,17.40
2022-10-17T09:04:38.243Z,16.90
2022-10-17T09:07:18.813Z,16.80
2022-10-17T09:10:23.560Z,17.40
2022-10-17T09:16:40.868Z,17.10
2022-10-17T09:19:35.970Z,17.90
2022-10-17T09:22:17.030Z,17.30
2022-10-17T09:24:55.542Z,17.00
2022-10-17T09:27:33.685Z,17.20
2022-10-17T09:30:51.564Z,15.10
2022-10-17T09:33:53.269Z,14.30
2022-10-17T09:36:34.910Z,13.40
2022-10-17T09:39:16.751Z,13.10
2022-10-17T09:41:48.248Z,14.30
2022-10-17T09:44:23.897Z,16.00
2022-10-17T09:47:14.241Z,16.80
2022-10-17T09:49:45.774Z,17.00
2022-10-17T09:52:35.251Z,19.30
2022-10-17T09:55:17.690Z,18.60
2022-10-17T09:58:04.361Z,17.10
2022-10-17T10:00:38.065Z,15.70
2022-10-17T10:03:26.549Z,14.70
2022-10-17T10:06:06.586Z,16.00
2022-10-17T10:08:49.244Z,15.50
2022-10-17T10:11:18.677Z,21.70
2022-10-17T10:13:49.356Z,16.90
2022-10-17T10:16:24.909Z,16.00
2022-10-17T10:18:53.025Z,14.50
2022-10-17T10:21:24.727Z,14.40
2022-10-17T10:24:14.984Z,16.60
2022-10-17T10:26:49.939Z,13.70
2022-10-17T10:29:35.683Z,15.00
2022-10-17T10:32:39.488Z,14.50
2022-10-17T10:35:19.681Z,15.00
2022-10-17T10:37:53.452Z,18.70
2022-10-17T10:40:46.132Z,15.80
2022-10-17T10:43:41.039Z,16.10
2022-10-17T10:46:28.694Z,14.60
2022-10-17T10:49:02.215Z,15.40
2022-10-17T10:51:48.039Z,16.60
2022-10-17T10:54:52.247Z,15.80
2022-10-17T10:57:23.215Z,13.20
2022-10-17T11:00:03.220Z,11.30
2022-10-17T11:02:43.127Z,16.10
2022-10-17T11:05:30.316Z,15.20
2022-10-17T11:08:32.857Z,14.00
2022-10-17T11:11:34.527Z,13.00
2022-10-17T11:14:21.541Z,12.90
2022-10-17T11:17:01.104Z,12.60
2022-10-17T11:19:43.937Z,11.80
2022-10-17T11:22:32.785Z,12.10
2022-10-17T11:25:25.872Z,11.30
2022-10-17T11:27:54.316Z,11.80
2022-10-17T11:30:27.044Z,11.50
2022-10-17T11:33:02.252Z,12.50
2022-10-17T11:35:38.025Z,15.50
2022-10-17T11:38:41.991Z,9.60
2022-10-17T11:41:20.829Z,8.90
2022-10-17T11:43:57.111Z,10.50
2022-10-17T11:46:28.670Z,11.10
2022-10-17T11:48:59.539Z,10.70
2022-10-17T11:54:45.789Z,10.70
2022-10-17T11:57:28.982Z,10.60
2022-10-17T12:03:06.421Z,10.30
2022-10-17T12:05:45.432Z,10.10
2022-10-17T12:08:40.422Z,10.00
2022-10-17T12:11:21.830Z,8.90
2022-10-17T12:13:53.785Z,8.50
2022-10-17T12:16:21.866Z,8.90
2022-10-17T12:19:11.524Z,8.20
2022-10-17T12:22:26.053Z,8.50
2022-10-17T12:25:04.075Z,8.10
2022-10-17T12:27:47.344Z,6.70
2022-10-17T12:33:07.517Z,7.10
2022-10-17T12:35:38.347Z,6.30
2022-10-17T12:38:22.913Z,6.70
2022-10-17T12:40:54.320Z,6.50
2022-10-17T12:43:28.296Z,6.10
2022-10-17T12:46:01.419Z,6.50
2022-10-17T12:48:38.567Z,5.50
2022-10-17T12:51:34.119Z,6.30
2022-10-17T12:54:02.227Z,6.10
2022-10-17T12:56:42.245Z,6.80
2022-10-17T12:59:22.456Z,7.30
2022-10-17T13:01:59.157Z,7.60
2022-10-17T13:04:29.488Z,6.10
2022-10-17T13:06:59.191Z,6.70
2022-10-17T13:09:38.673Z,7.50
2022-10-17T13:12:16.190Z,8.40
2022-10-17T13:14:46.780Z,6.50
2022-10-17T13:17:28.278Z,6.70
2022-10-17T13:19:57.792Z,5.90
2022-10-17T13:22:32.710Z,5.50
2022-10-17T13:25:16.627Z,4.60
2022-10-17T13:27:45.780Z,5.60
2022-10-17T13:30:27.996Z,5.30
2022-10-17T13:33:00.659Z,6.10
2022-10-17T13:38:32.455Z,4.20
2022-10-17T13:41:29.980Z,4.40
2022-10-17T13:43:52.118Z,4.20
2022-10-17T13:46:40.050Z,4.00
2022-10-17T13:49:33.879Z,4.10
2022-10-17T13:52:05.281Z,4.40
2022-10-17T13:54:41.843Z,3.40
2022-10-17T13:57:23.244Z,4.10
2022-10-17T14:00:21.802Z,3.70
2022-10-17T14:02:49.830Z,4.40
2022-10-17T14:05:21.198Z,4.30
2022-10-17T14:08:11.484Z,4.00
2022-10-17T14:10:43.208Z,4.50
2022-10-17T14:13:30.249Z,4.50
2022-10-17T14:16:02.265Z,5.00
2022-10-17T14:18:36.677Z,5.10
2022-10-17T14:24:27.074Z,5.20
2022-10-17T14:27:00.537Z,5.30
2022-10-17T14:29:32.182Z,6.40
2022-10-17T14:32:08.562Z,6.00
2022-10-17T14:34:40.542Z,5.70
2022-10-17T14:37:33.473Z,5.70
2022-10-17T14:40:04.988Z,5.10
2022-10-17T14:42:39.433Z,5.60
2022-10-17T14:45:14.713Z,6.20
2022-10-17T14:47:44.194Z,6.80
2022-10-17T14:50:12.680Z,6.00
2022-10-17T14:52:40.865Z,5.90
2022-10-17T14:55:26.436Z,6.20
2022-10-17T14:57:54.653Z,6.70
2022-10-17T15:00:24.200Z,7.20
2022-10-17T15:02:55.538Z,6.50
2022-10-17T15:05:24.908Z,6.60
2022-10-17T15:07:53.742Z,6.40
2022-10-17T15:10:36.921Z,7.20
2022-10-17T15:15:52.964Z,6.20
2022-10-17T15:18:20.960Z,7.00
2022-10-17T15:20:55.332Z,6.80
2022-10-17T15:23:32.775Z,7.50
2022-10-17T15:26:01.825Z,8.30
2022-10-17T15:28:30.010Z,9.60
2022-10-17T15:30:58.132Z,10.50
2022-10-17T15:33:26.182Z,10.10
2022-10-17T15:35:54.433Z,10.90
2022-10-17T15:38:22.540Z,10.80
2022-10-17T15:40:52.060Z,10.30
2022-10-17T15:43:20.291Z,9.80
2022-10-17T15:45:48.905Z,10.30
2022-10-17T15:48:30.208Z,9.40
2022-10-17T15:50:58.473Z,10.40
2022-10-17T15:53:26.683Z,9.70
2022-10-17T15:55:54.909Z,10.00
2022-10-17T15:58:22.955Z,9.20
2022-10-17T16:00:51.101Z,8.90
2022-10-17T16:03:19.250Z,9.90
2022-10-17T16:05:47.548Z,11.40
2022-10-17T16:08:15.544Z,11.30
2022-10-17T16:10:43.692Z,11.10
2022-10-17T16:13:23.359Z,13.80
2022-10-17T16:15:51.736Z,15.30
2022-10-17T16:18:21.190Z,16.20
2022-10-17T16:20:49.225Z,18.90
2022-10-17T16:23:17.319Z,18.70
2022-10-17T16:25:45.569Z,19.10
2022-10-17T16:28:13.612Z,17.80
2022-10-17T16:30:45.057Z,20.60
2022-10-17T16:33:13.295Z,21.70
2022-10-17T16:35:41.333Z,20.20
2022-10-17T16:38:09.370Z,19.70
2022-10-17T16:40:39.968Z,18.80
2022-10-17T16:43:12.590Z,17.70
2022-10-17T16:45:41.103Z,19.50
2022-10-17T16:48:09.749Z,20.50
2022-10-17T16:50:40.241Z,21.20
2022-10-17T16:53:08.352Z,21.80
2022-10-17T16:55:36.409Z,21.50
2022-10-17T16:58:04.590Z,21.90
2022-10-17T17:00:32.699Z,19.30
2022-10-17T17:03:00.755Z,20.70
2022-10-17T17:05:28.799Z,28.10
2022-10-17T17:07:56.804Z,61.30
2022-10-17T17:10:24.837Z,59.30
2022-10-17T17:12:52.876Z,50.40
2022-10-17T17:15:20.871Z,45.40
2022-10-17T17:17:52.448Z,31.50
2022-10-17T17:20:23.392Z,26.80
2022-10-17T17:22:52.376Z,21.20
2022-10-17T17:25:22.071Z,18.90
2022-10-17T17:27:50.224Z,18.50
2022-10-17T17:30:18.587Z,19.10
2022-10-17T17:32:46.617Z,25.40
2022-10-17T17:35:14.900Z,28.50
2022-10-17T17:37:42.957Z,25.50
2022-10-17T17:40:11.598Z,22.00
2022-10-17T17:42:39.651Z,19.20
2022-10-17T17:45:08.633Z,29.50
2022-10-17T17:47:36.670Z,45.30
2022-10-17T17:50:05.189Z,48.20
2022-10-17T17:52:33.427Z,29.10
2022-10-17T17:55:01.687Z,25.00
2022-10-17T17:57:30.207Z,20.10
2022-10-17T17:59:58.290Z,17.10
2022-10-17T18:02:26.314Z,18.50
2022-10-17T18:04:54.309Z,20.60
2022-10-17T18:07:23.464Z,20.20
2022-10-17T18:09:51.744Z,20.50
2022-10-17T18:12:19.758Z,20.50
2022-10-17T18:14:47.927Z,19.30
2022-10-17T18:17:16.063Z,17.90
2022-10-17T18:19:44.067Z,17.70
2022-10-17T18:22:12.231Z,18.20
2022-10-17T18:24:40.879Z,17.20
2022-10-17T18:27:08.908Z,18.60
2022-10-17T18:29:37.376Z,17.30
2022-10-17T18:32:05.725Z,18.20
2022-10-17T18:34:33.693Z,18.00
2022-10-17T18:37:02.626Z,18.40
2022-10-17T18:39:30.913Z,18.30
2022-10-17T18:41:59.107Z,17.80
2022-10-17T18:44:27.507Z,16.70
2022-10-17T18:46:58.569Z,17.20
2022-10-17T18:49:29.573Z,19.10
2022-10-17T18:51:57.593Z,18.00
2022-10-17T18:54:25.756Z,18.40
2022-10-17T18:56:55.202Z,19.70
2022-10-17T18:59:23.470Z,19.00
2022-10-17T19:01:51.497Z,20.30
2022-10-17T19:04:19.573Z,21.00
2022-10-17T19:06:47.585Z,20.30
2022-10-17T19:09:16.346Z,22.90
2022-10-17T19:11:44.371Z,21.00
2022-10-17T19:14:13.687Z,22.30
2022-10-17T19:16:46.431Z,21.90
2022-10-17T19:19:24.241Z,22.30
2022-10-17T19:21:53.179Z,21.60
2022-10-17T19:24:25.390Z,21.50
2022-10-17T19:26:56.666Z,20.40
2022-10-17T19:29:31.850Z,20.60
2022-10-17T19:32:01.109Z,20.10
2022-10-17T19:34:29.377Z,20.30
2022-10-17T19:36:57.445Z,21.20
2022-10-17T19:39:26.602Z,21.20
2022-10-17T19:41:54.707Z,20.20
2022-10-17T19:44:22.837Z,21.70
2022-10-17T19:46:50.894Z,22.00
2022-10-17T19:49:18.943Z,21.20
2022-10-17T19:51:47.156Z,22.00
2022-10-17T19:54:18.259Z,22.70
2022-10-17T19:56:46.808Z,21.60
2022-10-17T19:59:16.651Z,22.70
2022-10-17T20:01:45.592Z,22.50
2022-10-17T20:04:13.908Z,23.50
2022-10-17T20:06:42.364Z,21.70
2022-10-17T20:09:15.679Z,21.30
2022-10-17T20:11:45.734Z,22.00
2022-10-17T20:14:13.850Z,23.20
2022-10-17T20:16:44.690Z,24.00
2022-10-17T20:19:13.590Z,23.50
2022-10-17T20:21:42.528Z,24.10
2022-10-17T20:24:14.951Z,23.90
2022-10-17T20:26:44.327Z,23.40
2022-10-17T20:29:19.880Z,24.50
2022-10-17T20:31:48.349Z,22.80
2022-10-17T20:34:18.200Z,23.10
2022-10-17T20:36:47.408Z,22.70
2022-10-17T20:39:18.110Z,23.80
2022-10-17T20:41:46.756Z,23.90
2022-10-17T20:44:14.868Z,24.20
2022-10-17T20:47:00.575Z,23.00
2022-10-17T20:49:30.762Z,24.00
2022-10-17T20:52:00.618Z,23.70
2022-10-17T20:54:28.915Z,23.80
2022-10-17T20:56:59.895Z,24.50
2022-10-17T20:59:31.143Z,22.80
2022-10-17T21:01:59.170Z,25.30
2022-10-17T21:04:46.677Z,23.70
2022-10-17T21:07:15.856Z,25.00
2022-10-17T21:09:45.377Z,23.90
2022-10-17T21:12:21.550Z,22.90
2022-10-17T21:15:00.349Z,22.30
2022-10-17T21:17:28.459Z,22.90
2022-10-17T21:19:56.566Z,23.80
2022-10-17T21:22:24.981Z,23.50
2022-10-17T21:24:53.076Z,23.00
2022-10-17T21:27:21.088Z,22.80
2022-10-17T21:29:49.116Z,23.80
2022-10-17T21:32:31.901Z,23.10
2022-10-17T21:35:05.803Z,22.00
2022-10-17T21:37:33.975Z,21.70
2022-10-17T21:40:02.129Z,23.30
2022-10-17T21:42:30.489Z,22.50
2022-10-17T21:44:59.087Z,23.40
2022-10-17T21:47:27.776Z,21.90
2022-10-17T21:49:56.155Z,21.70
2022-10-17T21:52:24.336Z,22.40
2022-10-17T21:54:52.345Z,22.10
2022-10-17T21:57:20.396Z,22.20
2022-10-17T21:59:48.516Z,22.00
2022-10-17T22:02:16.511Z,22.30
2022-10-17T22:04:44.544Z,21.60
2022-10-17T22:07:12.617Z,22.10
2022-10-17T22:09:40.661Z,22.00
2022-10-17T22:12:08.655Z,21.60
2022-10-17T22:14:36.685Z,21.50
2022-10-17T22:17:04.749Z,21.80
2022-10-17T22:19:32.911Z,21.90
2022-10-17T22:22:00.881Z,22.40
2022-10-17T22:24:28.979Z,21.70
2022-10-17T22:26:57.016Z,21.00
2022-10-17T22:29:25.056Z,21.70
2022-10-17T22:31:53.113Z,22.60
2022-10-17T22:34:21.080Z,21.60
2022-10-17T22:36:49.164Z,20.70
2022-10-17T22:39:17.416Z,21.30
2022-10-17T22:41:45.394Z,20.70
2022-10-17T22:44:13.475Z,21.40
2022-10-17T22:46:41.490Z,21.60
2022-10-17T22:49:09.495Z,20.00
2022-10-17T22:51:37.491Z,19.50
2022-10-17T22:54:05.481Z,20.80
2022-10-17T22:56:33.560Z,18.70
2022-10-17T22:59:01.555Z,19.50
2022-10-17T23:01:29.748Z,19.10
2022-10-17T23:03:58.008Z,20.00
2022-10-17T23:06:26.062Z,18.60
2022-10-17T23:08:54.191Z,18.70
2022-10-17T23:11:22.835Z,19.50
2022-10-17T23:13:50.807Z,20.60
2022-10-17T23:16:18.912Z,18.80
2022-10-17T23:18:46.994Z,20.00
2022-10-17T23:21:15.526Z,17.70
2022-10-17T23:23:43.519Z,17.80
2022-10-17T23:26:14.356Z,17.80
2022-10-17T23:28:42.930Z,19.70
2022-10-17T23:31:18.029Z,20.10
2022-10-17T23:33:48.975Z,18.40
2022-10-17T23:36:20.418Z,19.00
2022-10-17T23:38:49.738Z,20.10
2022-10-17T23:41:18.839Z,18.70
2022-10-17T23:43:46.878Z,20.90
2022-10-17T23:46:14.924Z,20.50
2022-10-17T23:48:43.164Z,19.50
2022-10-17T23:51:11.508Z,19.50
2022-10-17T23:53:40.489Z,20.70
2022-10-17T23:56:10.156Z,20.50
2022-10-17T23:58:39.414Z,19.00
